Terminal Aerodrome Forecast
Issued by NWS

Home | Current Version | Previous Version | Text Only | Print | Product List | Glossary On
Versions: 1 2 3 4 5 6 7 8 9 10 11 12 13 14 15 16 17 18 19 20
000
FTUS43 KDTX 271720
TAFPTK
TAF
KPTK 271720Z 2718/2818 22018G34KT P6SM BKN035
     FM272100 24016G27KT P6SM SCT018 BKN030
     FM280000 24015KT P6SM BKN025
     FM280600 23007KT P6SM SCT030 BKN050
     FM281400 20010KT P6SM SCT050=

USA.gov is the U.S. government's official web portal to all federal, state and local government web resources and services.